Time;durP1;ratioP1;P1;durP2;ratioP2;P2;SDS_P1;SDS_P2;PMS_P1;PMS_P2;Temp;Humidity;BMP_temperature;BMP_pressure;BME280_temperature;BME280_humidity;BME280_pressure;Samples;Min_cycle;Max_cycle;Signal;HPM_P1;HPM_P2
2021/09/11 00:01:30;;;;;;;29.93;27.13;;;18.70;1.00;;;;;;5029731;28;20520;-88
2021/09/11 00:03:58;;;;;;;29.70;26.97;;;18.60;1.00;;;;;;5029999;28;20455;-86
2021/09/11 00:06:25;;;;;;;30.57;27.77;;;18.60;1.00;;;;;;5017434;28;20528;-88
2021/09/11 00:08:54;;;;;;;31.97;29.03;;;18.60;1.00;;;;;;5030795;28;20485;-87
2021/09/11 00:11:21;;;;;;;30.33;27.47;;;18.60;1.00;;;;;;5031935;28;20421;-85
2021/09/11 00:13:48;;;;;;;30.30;27.60;;;18.50;1.00;;;;;;5035141;28;20495;-89
2021/09/11 00:16:15;;;;;;;32.30;29.20;;;18.50;1.00;;;;;;5048297;28;20418;-88
2021/09/11 00:18:42;;;;;;;32.63;29.73;;;18.50;1.00;;;;;;5035015;28;20490;-88
2021/09/11 00:21:10;;;;;;;29.13;26.43;;;18.50;1.00;;;;;;5030637;28;20434;-88
2021/09/11 00:23:38;;;;;;;29.23;26.50;;;18.50;1.00;;;;;;5028828;28;20472;-88
2021/09/11 00:26:05;;;;;;;29.90;27.17;;;18.50;1.00;;;;;;5013634;28;20474;-88
2021/09/11 00:28:32;;;;;;;30.87;27.87;;;18.40;1.00;;;;;;5031334;28;20469;-87
2021/09/11 00:30:59;;;;;;;29.37;26.33;;;18.40;1.00;;;;;;5029875;28;20479;-87
2021/09/11 00:33:26;;;;;;;33.77;30.30;;;18.40;1.00;;;;;;5031129;28;20490;-87
2021/09/11 00:35:54;;;;;;;31.90;29.00;;;18.40;1.00;;;;;;5026791;28;20421;-87
2021/09/11 00:38:22;;;;;;;30.77;27.80;;;18.40;1.00;;;;;;5028521;28;20472;-86
2021/09/11 00:40:49;;;;;;;28.90;26.20;;;18.40;1.00;;;;;;5029402;28;20551;-87
2021/09/11 00:43:21;;;;;;;32.10;29.00;;;18.40;1.00;;;;;;5030033;28;20459;-87
2021/09/11 00:45:48;;;;;;;32.23;29.33;;;18.40;1.00;;;;;;5028524;28;20487;-89
2021/09/11 00:48:15;;;;;;;31.07;28.17;;;18.30;1.00;;;;;;5027520;28;20606;-86
2021/09/11 00:50:42;;;;;;;31.13;28.20;;;18.30;1.00;;;;;;5026068;28;20463;-88
2021/09/11 00:53:09;;;;;;;29.77;27.10;;;18.20;1.00;;;;;;5032002;28;21993;-86
2021/09/11 00:55:38;;;;;;;30.60;27.80;;;18.20;1.00;;;;;;5031943;28;20519;-88
2021/09/11 00:58:14;;;;;;;32.40;29.20;;;18.10;1.00;;;;;;5033505;28;20424;-87
2021/09/11 01:00:43;;;;;;;30.27;27.57;;;18.10;1.00;;;;;;5029046;28;20464;-85
2021/09/11 01:03:11;;;;;;;30.63;27.70;;;18.10;1.00;;;;;;5030049;28;20465;-87
2021/09/11 01:05:39;;;;;;;29.93;27.00;;;18.10;1.00;;;;;;5032158;28;20425;-87
2021/09/11 01:08:06;;;;;;;29.13;26.03;;;18.10;1.00;;;;;;5031247;28;20422;-88
2021/09/11 01:10:33;;;;;;;29.90;27.03;;;18.10;1.00;;;;;;5027042;28;20461;-86
2021/09/11 01:13:02;;;;;;;32.50;29.40;;;18.10;1.00;;;;;;5029778;28;20519;-88
2021/09/11 01:15:33;;;;;;;33.40;30.27;;;18.20;1.00;;;;;;5031976;28;20528;-87
2021/09/11 01:18:01;;;;;;;31.73;28.93;;;18.20;1.00;;;;;;5031345;28;20444;-87
2021/09/11 01:20:28;;;;;;;34.43;31.37;;;18.30;1.00;;;;;;5031596;28;20449;-86
2021/09/11 01:22:54;;;;;;;32.20;29.00;;;18.20;1.00;;;;;;5030638;28;20460;-85
2021/09/11 01:25:23;;;;;;;31.27;28.47;;;18.30;1.00;;;;;;5053389;28;20477;-87
2021/09/11 01:27:50;;;;;;;31.70;28.73;;;18.30;1.00;;;;;;5051086;28;20524;-87
2021/09/11 01:30:18;;;;;;;33.40;30.30;;;18.20;1.00;;;;;;5011955;28;20484;-87
2021/09/11 01:32:45;;;;;;;31.10;28.30;;;18.20;1.00;;;;;;5025971;28;20520;-89
2021/09/11 01:35:12;;;;;;;30.50;27.53;;;18.20;1.00;;;;;;5028144;28;20836;-87
2021/09/11 01:37:40;;;;;;;30.77;28.00;;;18.20;1.00;;;;;;5012282;28;20897;-87
2021/09/11 01:40:09;;;;;;;30.60;27.70;;;18.20;1.00;;;;;;5029445;28;20553;-86
2021/09/11 01:42:37;;;;;;;30.97;28.07;;;18.20;1.00;;;;;;5023881;28;20504;-87
2021/09/11 01:45:07;;;;;;;30.93;28.03;;;18.20;1.00;;;;;;5026776;28;21106;-87
2021/09/11 01:47:34;;;;;;;30.90;27.80;;;18.10;1.00;;;;;;5029228;28;20781;-86
2021/09/11 01:50:00;;;;;;;32.10;28.90;;;18.10;1.00;;;;;;5027063;28;20464;-87
2021/09/11 01:52:27;;;;;;;34.90;31.50;;;18.10;1.00;;;;;;5029821;28;21043;-86
2021/09/11 01:54:54;;;;;;;35.40;32.10;;;18.00;1.00;;;;;;5027392;28;20432;-86
2021/09/11 01:57:21;;;;;;;32.63;29.47;;;18.00;1.00;;;;;;5027431;28;21215;-87
2021/09/11 01:59:49;;;;;;;32.13;28.73;;;18.00;1.00;;;;;;5028646;28;21083;-85
2021/09/11 02:02:16;;;;;;;34.30;31.10;;;18.00;1.00;;;;;;5031857;28;20469;-87
2021/09/11 02:04:43;;;;;;;33.57;30.30;;;18.00;1.00;;;;;;5032530;28;20441;-86
2021/09/11 02:07:09;;;;;;;33.10;29.90;;;18.00;1.00;;;;;;5039522;28;20456;-85
2021/09/11 02:09:37;;;;;;;33.03;29.73;;;18.00;1.00;;;;;;5055495;28;20547;-87
2021/09/11 02:12:11;;;;;;;31.70;28.80;;;18.00;1.00;;;;;;5062330;28;20456;-88
2021/09/11 02:14:37;;;;;;;34.23;31.20;;;18.10;1.00;;;;;;5063535;28;20492;-89
2021/09/11 02:17:06;;;;;;;34.50;31.30;;;18.00;1.00;;;;;;5062923;28;20469;-89
2021/09/11 02:19:33;;;;;;;34.17;30.97;;;18.00;1.00;;;;;;5062860;28;20468;-88
2021/09/11 02:22:01;;;;;;;34.57;31.57;;;18.00;1.00;;;;;;5061476;28;20501;-88
2021/09/11 02:24:29;;;;;;;36.47;33.27;;;18.00;1.00;;;;;;5064364;27;20432;-85
2021/09/11 02:26:58;;;;;;;35.23;32.10;;;18.00;1.00;;;;;;5063288;28;20409;-88
2021/09/11 02:29:25;;;;;;;33.00;30.03;;;18.10;1.00;;;;;;5063814;28;20460;-88
2021/09/11 02:31:52;;;;;;;34.20;30.97;;;18.10;1.00;;;;;;5060564;28;20476;-88
2021/09/11 02:34:20;;;;;;;33.90;30.70;;;18.10;1.00;;;;;;5061113;28;20421;-88
2021/09/11 02:36:47;;;;;;;35.30;32.10;;;18.10;1.00;;;;;;5056188;28;20931;-85
2021/09/11 02:39:13;;;;;;;36.07;32.87;;;18.00;1.00;;;;;;5055241;28;20506;-88
2021/09/11 02:41:40;;;;;;;32.40;29.50;;;18.00;1.00;;;;;;5044146;28;20468;-88
2021/09/11 02:44:07;;;;;;;34.20;31.00;;;18.00;1.00;;;;;;5032537;28;20420;-86
2021/09/11 02:46:35;;;;;;;34.03;31.03;;;18.00;1.00;;;;;;5033726;28;20473;-87
2021/09/11 02:49:01;;;;;;;35.13;31.93;;;18.00;1.00;;;;;;5027628;28;20454;-87
2021/09/11 02:51:30;;;;;;;33.90;30.50;;;18.00;1.00;;;;;;5028294;28;21021;-88
2021/09/11 02:53:57;;;;;;;35.10;32.10;;;17.90;1.00;;;;;;5029623;28;20635;-86
2021/09/11 02:56:24;;;;;;;34.70;31.80;;;18.00;1.00;;;;;;5026416;28;21610;-86
2021/09/11 02:58:51;;;;;;;33.63;30.53;;;17.90;1.00;;;;;;5027372;28;20955;-85
2021/09/11 03:01:17;;;;;;;33.03;30.10;;;17.90;1.00;;;;;;5026790;28;20494;-85
2021/09/11 03:03:44;;;;;;;32.60;29.80;;;17.90;1.00;;;;;;5028808;28;20453;-85
2021/09/11 03:06:11;;;;;;;34.37;30.83;;;17.90;1.00;;;;;;5025712;28;20970;-86
2021/09/11 03:08:39;;;;;;;33.27;30.23;;;17.90;1.00;;;;;;5024616;28;20578;-85
2021/09/11 03:11:06;;;;;;;34.90;31.70;;;17.80;1.00;;;;;;5028234;28;20555;-85
2021/09/11 03:13:32;;;;;;;34.77;31.30;;;17.80;1.00;;;;;;5031014;28;20511;-86
2021/09/11 03:15:59;;;;;;;35.03;31.60;;;17.80;1.00;;;;;;5031242;28;20544;-86
2021/09/11 03:18:26;;;;;;;34.67;31.57;;;17.80;1.00;;;;;;5029280;28;21177;-88
2021/09/11 03:20:52;;;;;;;34.87;31.70;;;17.80;1.00;;;;;;5033231;28;20540;-86
2021/09/11 03:23:19;;;;;;;33.77;30.27;;;17.80;1.00;;;;;;5027127;28;20623;-86
2021/09/11 03:25:47;;;;;;;33.40;30.30;;;17.80;1.00;;;;;;5036770;28;21252;-86
2021/09/11 03:28:15;;;;;;;35.47;32.07;;;17.80;1.00;;;;;;5037449;28;20707;-85
2021/09/11 03:30:41;;;;;;;32.67;29.60;;;17.80;1.00;;;;;;5036951;28;20463;-88
2021/09/11 03:33:08;;;;;;;34.60;31.40;;;17.80;1.00;;;;;;5038481;28;20553;-86
2021/09/11 03:35:35;;;;;;;33.03;29.70;;;17.80;1.00;;;;;;5034207;28;21268;-86
2021/09/11 03:38:02;;;;;;;33.00;30.00;;;17.80;1.00;;;;;;5038984;28;20468;-86
2021/09/11 03:40:29;;;;;;;34.40;31.30;;;17.90;1.00;;;;;;5038816;28;20734;-86
2021/09/11 03:42:57;;;;;;;31.80;28.77;;;17.90;1.00;;;;;;5038870;28;20417;-85
2021/09/11 03:45:24;;;;;;;33.47;30.27;;;17.90;1.00;;;;;;5043347;28;21122;-88
2021/09/11 03:47:51;;;;;;;32.63;29.53;;;17.90;1.00;;;;;;5064277;28;20476;-87
2021/09/11 03:50:17;;;;;;;32.97;29.87;;;17.90;1.00;;;;;;5062430;28;20428;-87
2021/09/11 03:52:44;;;;;;;35.00;31.70;;;17.90;1.00;;;;;;5060171;27;20416;-88
2021/09/11 03:55:11;;;;;;;33.37;30.40;;;17.90;1.00;;;;;;5062083;28;20445;-87
2021/09/11 03:57:40;;;;;;;33.53;30.43;;;17.90;1.00;;;;;;5057152;28;20397;-88
2021/09/11 04:00:10;;;;;;;35.47;32.00;;;17.90;1.00;;;;;;5057340;28;20587;-88
2021/09/11 04:02:36;;;;;;;35.87;32.60;;;17.80;1.00;;;;;;5048673;28;22773;-88
2021/09/11 04:05:03;;;;;;;35.30;31.80;;;17.80;1.00;;;;;;5022319;28;20488;-87
2021/09/11 04:07:30;;;;;;;31.70;28.80;;;17.80;1.00;;;;;;5022034;28;20456;-86
2021/09/11 04:09:57;;;;;;;35.53;32.10;;;17.80;1.00;;;;;;5020685;28;20457;-84
2021/09/11 04:12:23;;;;;;;38.27;33.73;;;17.70;1.00;;;;;;5013616;28;20460;-85
2021/09/11 04:14:50;;;;;;;35.00;31.90;;;17.70;1.00;;;;;;5016474;28;22342;-85
2021/09/11 04:17:18;;;;;;;33.87;30.67;;;17.70;1.00;;;;;;5023321;28;20494;-86
2021/09/11 04:19:45;;;;;;;34.17;30.80;;;17.70;1.00;;;;;;5028523;28;20434;-86
2021/09/11 04:22:11;;;;;;;36.80;33.20;;;17.70;1.00;;;;;;5025930;28;20429;-84
2021/09/11 04:24:38;;;;;;;35.70;32.30;;;17.70;1.00;;;;;;5020079;28;20437;-87
2021/09/11 04:27:05;;;;;;;38.17;34.83;;;17.70;1.00;;;;;;5023382;28;21026;-87
2021/09/11 04:29:32;;;;;;;33.83;30.77;;;17.80;1.00;;;;;;5027819;28;20566;-85
2021/09/11 04:31:58;;;;;;;38.27;34.57;;;17.80;1.00;;;;;;5025020;28;20555;-87
2021/09/11 04:34:26;;;;;;;35.67;32.37;;;17.80;1.00;;;;;;5033373;28;20476;-84
2021/09/11 04:36:53;;;;;;;38.33;34.37;;;17.90;1.00;;;;;;5031463;28;20461;-86
2021/09/11 04:39:20;;;;;;;35.27;32.00;;;17.90;1.00;;;;;;5033551;28;20443;-86
2021/09/11 04:41:48;;;;;;;35.53;32.20;;;17.90;1.00;;;;;;5029527;28;20533;-84
2021/09/11 04:44:14;;;;;;;35.13;31.77;;;17.90;1.00;;;;;;5030497;28;20559;-86
2021/09/11 04:46:41;;;;;;;35.77;31.97;;;18.00;1.00;;;;;;5027849;28;20461;-85
2021/09/11 04:49:08;;;;;;;35.93;32.30;;;18.10;1.00;;;;;;5027514;28;20500;-85
2021/09/11 04:51:36;;;;;;;35.47;32.33;;;18.10;1.00;;;;;;5029882;28;20412;-86
2021/09/11 04:54:02;;;;;;;36.43;33.10;;;18.10;1.00;;;;;;5031958;28;20445;-87
2021/09/11 04:56:29;;;;;;;34.00;30.60;;;18.10;1.00;;;;;;5026387;28;20467;-88
2021/09/11 04:58:56;;;;;;;36.47;32.97;;;18.00;1.00;;;;;;5028976;28;20507;-87
2021/09/11 05:01:22;;;;;;;35.10;31.60;;;18.10;1.00;;;;;;5030523;28;20444;-84
2021/09/11 05:03:49;;;;;;;33.67;30.60;;;18.10;1.00;;;;;;5028338;28;20445;-86
2021/09/11 05:06:16;;;;;;;36.93;33.53;;;18.20;1.00;;;;;;5028528;28;20569;-86
2021/09/11 05:08:44;;;;;;;33.93;30.93;;;18.20;1.00;;;;;;5026519;28;20439;-86
2021/09/11 05:11:10;;;;;;;36.67;33.17;;;18.30;1.00;;;;;;5027081;28;20409;-86
2021/09/11 05:13:37;;;;;;;33.73;30.33;;;18.30;1.00;;;;;;5028008;28;20576;-85
2021/09/11 05:16:04;;;;;;;36.33;32.87;;;18.30;1.00;;;;;;5027502;28;20457;-85
2021/09/11 05:18:32;;;;;;;35.33;31.67;;;18.30;1.00;;;;;;5028544;28;20489;-83
2021/09/11 05:21:04;;;;;;;34.00;30.57;;;18.40;1.00;;;;;;5028302;28;20955;-85
2021/09/11 05:23:30;;;;;;;34.03;30.97;;;18.40;1.00;;;;;;5034361;28;21749;-87
2021/09/11 05:25:58;;;;;;;34.63;30.93;;;18.50;1.00;;;;;;5034084;28;20484;-86
2021/09/11 05:28:25;;;;;;;36.17;32.67;;;18.50;1.00;;;;;;5035443;28;20583;-86
2021/09/11 05:30:52;;;;;;;35.13;31.83;;;18.50;1.00;;;;;;5033108;28;20522;-88
2021/09/11 05:33:19;;;;;;;36.80;33.23;;;18.60;1.00;;;;;;5023531;28;20423;-88
2021/09/11 05:35:45;;;;;;;32.27;29.17;;;18.70;1.00;;;;;;5022636;28;20582;-86
2021/09/11 05:38:12;;;;;;;37.10;33.70;;;18.80;1.00;;;;;;5023263;28;20456;-85
2021/09/11 05:40:39;;;;;;;36.13;32.87;;;18.90;1.00;;;;;;5017826;28;20459;-88
2021/09/11 05:43:08;;;;;;;35.67;32.30;;;19.00;1.00;;;;;;5024821;28;20480;-87
2021/09/11 05:45:35;;;;;;;35.00;31.33;;;19.00;1.00;;;;;;5020693;28;21226;-86
2021/09/11 05:48:01;;;;;;;34.63;31.63;;;19.10;1.00;;;;;;5020732;28;20456;-86
2021/09/11 05:50:28;;;;;;;33.10;30.00;;;19.30;1.00;;;;;;5005706;28;21919;-86
2021/09/11 05:52:55;;;;;;;33.90;30.73;;;19.30;1.00;;;;;;5022067;28;20540;-86
2021/09/11 05:55:22;;;;;;;31.30;28.40;;;19.50;1.00;;;;;;5007547;28;20467;-86
2021/09/11 05:57:49;;;;;;;31.30;28.33;;;19.50;1.00;;;;;;5019951;28;20497;-85
2021/09/11 06:00:17;;;;;;;30.50;27.70;;;19.60;1.00;;;;;;5022493;28;21954;-84
2021/09/11 06:02:44;;;;;;;31.67;28.33;;;19.60;1.00;;;;;;5022222;28;20461;-86
2021/09/11 06:05:11;;;;;;;30.40;27.60;;;19.70;1.00;;;;;;5016059;28;21271;-87
2021/09/11 06:07:40;;;;;;;29.60;26.70;;;19.60;1.00;;;;;;5023386;28;20834;-86
2021/09/11 06:10:07;;;;;;;31.20;28.30;;;19.70;1.00;;;;;;5018448;28;20488;-85
2021/09/11 06:12:34;;;;;;;28.60;26.00;;;19.60;1.00;;;;;;5023033;28;20500;-85
2021/09/11 06:15:01;;;;;;;28.00;25.50;;;19.60;1.00;;;;;;5022222;28;22499;-85
2021/09/11 06:17:29;;;;;;;30.30;27.60;;;19.60;1.00;;;;;;5028430;28;20698;-88
2021/09/11 06:19:56;;;;;;;29.80;27.20;;;19.60;1.00;;;;;;5025842;28;20465;-88
2021/09/11 06:22:22;;;;;;;30.43;27.57;;;19.60;1.00;;;;;;5020996;28;20449;-86
2021/09/11 06:24:49;;;;;;;30.90;28.10;;;19.60;1.00;;;;;;5023921;28;20446;-88
2021/09/11 06:27:18;;;;;;;29.43;26.43;;;19.60;1.00;;;;;;5024012;28;21238;-85
2021/09/11 06:29:45;;;;;;;31.60;28.77;;;19.50;1.00;;;;;;5025483;28;20924;-83
2021/09/11 06:32:12;;;;;;;29.77;26.87;;;19.50;1.00;;;;;;5026065;28;20973;-84
2021/09/11 06:34:40;;;;;;;28.60;26.00;;;19.60;1.00;;;;;;5041916;28;20450;-83
2021/09/11 06:37:06;;;;;;;32.13;29.10;;;19.60;1.00;;;;;;5043447;28;21268;-84
2021/09/11 06:39:33;;;;;;;29.40;26.70;;;19.60;1.00;;;;;;5027195;28;20479;-84
2021/09/11 06:42:00;;;;;;;31.70;28.63;;;19.70;1.00;;;;;;5022430;28;21899;-83
2021/09/11 06:44:26;;;;;;;31.30;28.40;;;19.70;1.00;;;;;;5004044;28;20472;-84
2021/09/11 06:46:53;;;;;;;31.13;27.93;;;19.70;1.00;;;;;;5028785;28;20434;-84
2021/09/11 06:49:20;;;;;;;29.27;26.67;;;19.70;1.00;;;;;;5024486;28;20443;-83
2021/09/11 06:51:48;;;;;;;32.30;29.17;;;19.70;1.00;;;;;;5027802;28;20604;-83
2021/09/11 06:54:15;;;;;;;34.80;31.50;;;19.70;1.00;;;;;;5025993;28;21110;-84
2021/09/11 06:56:41;;;;;;;32.23;29.10;;;19.70;1.00;;;;;;5016201;28;20450;-83
2021/09/11 06:59:08;;;;;;;32.07;29.03;;;19.70;1.00;;;;;;5016292;28;20503;-84
2021/09/11 07:01:35;;;;;;;32.43;29.53;;;19.80;1.00;;;;;;5025437;28;22401;-82
2021/09/11 07:04:01;;;;;;;30.93;28.03;;;19.90;1.00;;;;;;5023728;28;20448;-81
2021/09/11 07:06:28;;;;;;;29.47;26.67;;;20.00;1.00;;;;;;5035776;28;20503;-83
2021/09/11 07:08:59;;;;;;;32.77;29.63;;;20.10;1.00;;;;;;5033630;28;20427;-84
2021/09/11 07:11:26;;;;;;;31.80;28.70;;;20.20;1.00;;;;;;5031056;28;20494;-78
2021/09/11 07:13:52;;;;;;;30.00;27.10;;;20.20;1.00;;;;;;5019796;28;20604;-79
2021/09/11 07:16:19;;;;;;;30.93;28.17;;;20.20;1.00;;;;;;5012681;28;20466;-78
2021/09/11 07:18:46;;;;;;;28.73;26.23;;;20.20;1.00;;;;;;5034132;28;20438;-79
2021/09/11 07:21:12;;;;;;;29.17;26.43;;;20.30;1.00;;;;;;5032676;28;20461;-78
2021/09/11 07:23:39;;;;;;;28.10;25.57;;;20.30;1.00;;;;;;5029653;28;20466;-79
2021/09/11 07:26:07;;;;;;;28.67;25.97;;;20.30;1.00;;;;;;5027998;28;20584;-80
2021/09/11 07:28:35;;;;;;;28.83;26.23;;;20.40;1.00;;;;;;5026914;28;20640;-79
2021/09/11 07:31:05;;;;;;;28.80;26.30;;;20.40;1.00;;;;;;5029723;28;21871;-78
2021/09/11 07:33:31;;;;;;;29.87;27.07;;;20.50;1.00;;;;;;5028718;28;20584;-79
2021/09/11 07:35:58;;;;;;;26.40;23.90;;;20.60;1.00;;;;;;5005195;28;20470;-80
2021/09/11 07:38:25;;;;;;;26.23;23.63;;;20.80;1.00;;;;;;5024814;28;20445;-78
2021/09/11 07:40:51;;;;;;;28.00;25.17;;;21.00;1.00;;;;;;5018326;28;20457;-78
2021/09/11 07:43:19;;;;;;;26.47;24.03;;;21.20;1.00;;;;;;5029808;28;21600;-77
2021/09/11 07:45:46;;;;;;;25.43;23.13;;;21.20;1.00;;;;;;5040692;28;21139;-77
2021/09/11 07:48:13;;;;;;;26.80;24.27;;;21.40;1.00;;;;;;5024195;28;20442;-77
2021/09/11 07:50:40;;;;;;;26.33;23.83;;;21.40;1.00;;;;;;5020600;28;20458;-77
2021/09/11 07:53:07;;;;;;;25.00;22.90;;;21.30;1.00;;;;;;5017102;28;21182;-77
2021/09/11 07:55:34;;;;;;;26.50;24.20;;;21.20;1.00;;;;;;5023219;28;20468;-76
2021/09/11 07:58:00;;;;;;;25.20;22.90;;;21.00;1.00;;;;;;5031280;28;20532;-77
2021/09/11 08:00:29;;;;;;;26.93;24.43;;;20.80;1.00;;;;;;5015325;28;20423;-77
2021/09/11 08:02:57;;;;;;;27.50;25.00;;;20.80;1.00;;;;;;5013880;28;20463;-77
2021/09/11 08:05:24;;;;;;;27.30;24.87;;;20.80;1.00;;;;;;5021818;28;21021;-78
2021/09/11 08:07:51;;;;;;;28.63;26.03;;;20.80;1.00;;;;;;5015043;28;20455;-77
2021/09/11 08:10:19;;;;;;;28.47;25.77;;;20.70;1.00;;;;;;5018201;28;20523;-77
2021/09/11 08:12:46;;;;;;;29.60;26.90;;;20.80;1.00;;;;;;5014018;28;20443;-78
2021/09/11 08:15:15;;;;;;;26.80;24.33;;;20.80;1.00;;;;;;5014656;28;20460;-78
2021/09/11 08:17:45;;;;;;;28.57;25.87;;;20.80;1.00;;;;;;5030642;28;20434;-78
2021/09/11 08:20:15;;;;;;;28.70;26.10;;;20.90;1.00;;;;;;5024490;28;20497;-78
2021/09/11 08:22:42;;;;;;;27.53;25.13;;;20.90;1.00;;;;;;5014420;28;20453;-77
2021/09/11 08:25:10;;;;;;;30.70;27.90;;;21.00;1.00;;;;;;5019874;28;20480;-77
2021/09/11 08:27:36;;;;;;;31.30;28.40;;;21.00;1.00;;;;;;5029305;28;21249;-79
2021/09/11 08:30:04;;;;;;;31.87;29.00;;;21.10;1.00;;;;;;5026270;28;20534;-79
2021/09/11 08:32:31;;;;;;;30.30;27.33;;;21.30;1.00;;;;;;5025004;28;20452;-79
2021/09/11 08:34:59;;;;;;;28.87;26.17;;;21.40;1.00;;;;;;5003601;28;20459;-78
2021/09/11 08:37:25;;;;;;;27.80;25.30;;;21.60;1.00;;;;;;5027464;28;20459;-77
2021/09/11 08:39:52;;;;;;;27.30;24.67;;;21.70;1.00;;;;;;5024243;28;20451;-78
2021/09/11 08:42:20;;;;;;;27.53;25.07;;;21.70;1.00;;;;;;5025071;28;21661;-78
2021/09/11 08:44:47;;;;;;;29.00;26.50;;;21.80;1.00;;;;;;5024640;28;20963;-79
2021/09/11 08:47:14;;;;;;;25.30;23.00;;;21.80;1.00;;;;;;5018913;28;20505;-78
2021/09/11 08:49:41;;;;;;;23.70;21.70;;;21.80;1.00;;;;;;5016778;28;20543;-78
2021/09/11 08:52:09;;;;;;;24.07;21.97;;;21.90;1.00;;;;;;5016862;28;20619;-81
2021/09/11 08:54:36;;;;;;;24.33;22.20;;;22.10;1.00;;;;;;5030870;28;20486;-79
2021/09/11 08:57:18;;;;;;;21.60;19.80;;;22.30;1.00;;;;;;5026655;28;20472;-78
2021/09/11 08:59:45;;;;;;;21.83;19.87;;;22.40;1.00;;;;;;5019868;28;20459;-80
2021/09/11 09:02:12;;;;;;;22.03;19.83;;;22.60;1.00;;;;;;5016064;28;21483;-79
2021/09/11 09:05:00;;;;;;;24.27;21.97;;;22.90;1.00;;;;;;5025487;28;20425;-79
2021/09/11 09:07:38;;;;;;;18.87;17.27;;;23.20;1.00;;;;;;5011488;28;23011;-79
2021/09/11 09:10:07;;;;;;;18.33;16.83;;;23.50;1.00;;;;;;4999359;28;20439;-78
2021/09/11 09:12:36;;;;;;;18.87;17.27;;;23.60;1.00;;;;;;5016759;28;20484;-78
2021/09/11 09:15:06;;;;;;;18.80;17.23;;;23.70;1.00;;;;;;5015962;28;20456;-79
2021/09/11 09:17:45;;;;;;;16.23;14.93;;;23.80;1.00;;;;;;5019240;28;21351;-79
2021/09/11 09:20:15;;;;;;;16.77;15.07;;;23.90;1.00;;;;;;5024758;28;21328;-78
2021/09/11 09:22:44;;;;;;;18.67;17.17;;;23.90;1.00;;;;;;5021910;28;20460;-80
2021/09/11 09:25:27;;;;;;;19.20;17.57;;;24.00;1.00;;;;;;5022207;28;20456;-79
2021/09/11 09:27:56;;;;;;;18.13;16.73;;;24.20;1.00;;;;;;5016960;28;21127;-77
2021/09/11 09:30:33;;;;;;;16.40;15.10;;;24.50;1.00;;;;;;5021273;28;20567;-80
2021/09/11 09:33:00;;;;;;;18.20;16.70;;;24.70;1.00;;;;;;5019928;28;21287;-77
2021/09/11 09:35:27;;;;;;;15.40;14.13;;;24.70;1.00;;;;;;5016515;28;20834;-76
2021/09/11 09:37:56;;;;;;;17.37;15.80;;;24.50;1.00;;;;;;5022091;28;20452;-81
2021/09/11 09:40:48;;;;;;;16.73;15.33;;;24.30;1.00;;;;;;5028879;28;20412;-79
2021/09/11 09:43:29;;;;;;;16.30;15.00;;;24.10;1.00;;;;;;5011760;28;20472;-77
2021/09/11 09:46:04;;;;;;;15.77;14.47;;;24.10;1.00;;;;;;5029205;28;20459;-77
2021/09/11 09:48:33;;;;;;;15.27;14.07;;;24.00;1.00;;;;;;5023437;28;20462;-78
2021/09/11 09:51:04;;;;;;;14.97;13.70;;;24.00;1.00;;;;;;5030206;28;20535;-78
2021/09/11 09:53:32;;;;;;;14.73;13.53;;;24.20;1.00;;;;;;5029770;28;20523;-79
2021/09/11 09:56:00;;;;;;;15.27;13.97;;;24.50;1.00;;;;;;5030359;28;20556;-81
2021/09/11 09:58:26;;;;;;;14.97;13.77;;;24.90;1.00;;;;;;5025362;28;20527;-76
2021/09/11 10:00:54;;;;;;;14.20;13.10;;;25.20;1.00;;;;;;5015979;28;21016;-79
2021/09/11 10:03:21;;;;;;;13.60;12.50;;;25.10;1.00;;;;;;5033157;28;20440;-78
2021/09/11 10:05:51;;;;;;;14.20;13.00;;;25.00;1.00;;;;;;5033917;28;20573;-78
2021/09/11 10:08:19;;;;;;;12.43;11.33;;;24.90;1.00;;;;;;5033354;28;20457;-76
2021/09/11 10:10:50;;;;;;;11.90;10.90;;;24.60;1.00;;;;;;5030380;28;20483;-79
2021/09/11 10:13:18;;;;;;;14.73;13.37;;;24.30;1.00;;;;;;5018504;28;20468;-79
2021/09/11 10:15:55;;;;;;;11.20;10.40;;;24.00;1.00;;;;;;5022478;28;20486;-78
2021/09/11 10:18:42;;;;;;;11.37;10.47;;;23.80;1.00;;;;;;5025306;28;20517;-78
2021/09/11 10:21:21;;;;;;;11.90;10.80;;;23.60;1.00;;;;;;5021970;28;20777;-79
2021/09/11 10:24:26;;;;;;;11.57;10.70;;;23.70;1.00;;;;;;5019635;28;20540;-80
2021/09/11 10:26:55;;;;;;;10.70;9.80;;;24.00;1.00;;;;;;5021563;28;20466;-80
2021/09/11 10:29:51;;;;;;;9.40;8.57;;;24.50;1.00;;;;;;5023595;28;20442;-79
2021/09/11 10:32:20;;;;;;;9.10;8.30;;;25.10;1.00;;;;;;5028585;28;20534;-79
2021/09/11 10:34:50;;;;;;;8.77;7.97;;;26.00;1.00;;;;;;5019539;28;20431;-80
2021/09/11 10:37:33;;;;;;;7.70;7.10;;;26.50;1.00;;;;;;5019706;28;20459;-79
2021/09/11 10:40:27;;;;;;;7.20;6.63;;;27.10;1.00;;;;;;5018335;28;20440;-78
2021/09/11 10:43:16;;;;;;;8.00;7.20;;;27.40;1.00;;;;;;5019878;28;20448;-78
2021/09/11 10:45:45;;;;;;;8.23;7.40;;;27.90;1.00;;;;;;5022141;28;20450;-80
2021/09/11 10:48:44;;;;;;;7.87;7.20;;;28.50;1.00;;;;;;5023875;28;21127;-80
2021/09/11 10:51:16;;;;;;;8.10;7.50;;;28.80;1.00;;;;;;5031914;28;20422;-78
2021/09/11 10:53:56;;;;;;;7.87;7.17;;;29.00;1.00;;;;;;5023139;28;20450;-78
2021/09/11 10:56:24;;;;;;;9.17;8.37;;;28.50;1.00;;;;;;5030424;28;20503;-80
2021/09/11 10:59:24;;;;;;;8.50;7.80;;;28.40;1.00;;;;;;5031477;28;20478;-79
2021/09/11 11:01:58;;;;;;;8.33;7.60;;;28.60;1.00;;;;;;5012484;28;20434;-81
2021/09/11 11:04:27;;;;;;;10.40;9.40;;;28.50;1.00;;;;;;5032727;28;20446;-78
2021/09/11 11:06:55;;;;;;;9.40;8.67;;;28.30;1.00;;;;;;5035351;28;20442;-80
2021/09/11 11:09:24;;;;;;;9.77;8.87;;;28.10;1.00;;;;;;5033175;28;20478;-80
2021/09/11 11:11:53;;;;;;;9.50;8.73;;;27.90;1.00;;;;;;5026116;28;20792;-79
2021/09/11 11:14:20;;;;;;;9.13;8.27;;;28.20;1.00;;;;;;5034980;28;20472;-79
2021/09/11 11:16:52;;;;;;;9.47;8.67;;;28.20;1.00;;;;;;5026150;28;20729;-80
2021/09/11 11:19:25;;;;;;;10.27;9.47;;;28.30;1.00;;;;;;5031174;28;20457;-79
2021/09/11 11:21:54;;;;;;;9.83;9.00;;;28.00;1.00;;;;;;5025052;28;20462;-81
2021/09/11 11:24:21;;;;;;;10.80;9.77;;;27.60;1.00;;;;;;5025805;28;20555;-78
2021/09/11 11:26:48;;;;;;;10.47;9.57;;;27.10;1.00;;;;;;5024693;28;20485;-79
2021/09/11 11:29:20;;;;;;;12.17;11.17;;;26.70;1.00;;;;;;5030401;28;21351;-78
2021/09/11 11:31:48;;;;;;;10.63;9.60;;;26.30;1.00;;;;;;5024085;28;20454;-80
2021/09/11 11:34:16;;;;;;;7.17;6.50;;;26.10;1.00;;;;;;5026547;28;20702;-78
2021/09/11 11:36:54;;;;;;;8.10;7.33;;;26.10;1.00;;;;;;5022409;28;20547;-80
2021/09/11 11:39:26;;;;;;;8.97;6.90;;;26.30;1.00;;;;;;5020777;28;20463;-79
2021/09/11 11:41:55;;;;;;;6.90;6.40;;;26.50;1.00;;;;;;5022730;28;20451;-79
2021/09/11 11:44:22;;;;;;;7.77;7.23;;;26.30;1.00;;;;;;5029163;28;20968;-80
2021/09/11 11:46:52;;;;;;;9.80;8.80;;;26.10;1.00;;;;;;5032032;28;20443;-80
2021/09/11 11:49:19;;;;;;;10.87;9.83;;;25.80;1.00;;;;;;5025325;28;20471;-78
2021/09/11 11:51:57;;;;;;;9.27;8.53;;;26.00;1.00;;;;;;5030547;28;21306;-79
2021/09/11 11:54:25;;;;;;;8.53;7.93;;;25.90;1.00;;;;;;5024723;28;20459;-79
2021/09/11 11:56:52;;;;;;;8.57;7.87;;;26.30;1.00;;;;;;5027489;28;20469;-80
2021/09/11 11:59:23;;;;;;;8.17;7.57;;;28.20;1.00;;;;;;5029317;28;20482;-80
2021/09/11 12:01:50;;;;;;;7.57;6.77;;;29.60;1.00;;;;;;5021771;28;20453;-80
2021/09/11 12:04:19;;;;;;;7.53;6.93;;;31.60;1.00;;;;;;5022079;28;20442;-79
2021/09/11 12:06:48;;;;;;;7.50;6.90;;;33.80;1.00;;;;;;5023725;28;21019;-79
2021/09/11 12:09:18;;;;;;;8.10;7.50;;;35.50;1.00;;;;;;5024607;28;20503;-81
2021/09/11 12:11:47;;;;;;;8.50;7.80;;;35.90;1.00;;;;;;5023535;28;21901;-79
2021/09/11 12:14:16;;;;;;;8.87;8.07;;;34.80;1.00;;;;;;5023628;28;20412;-80
2021/09/11 12:16:44;;;;;;;6.83;6.33;;;33.20;1.00;;;;;;5024463;28;20501;-79
2021/09/11 12:19:12;;;;;;;7.47;6.77;;;31.20;1.00;;;;;;5022487;28;20481;-79
2021/09/11 12:21:39;;;;;;;8.17;7.47;;;30.00;1.00;;;;;;5020226;28;20458;-80
2021/09/11 12:24:17;;;;;;;8.90;8.10;;;29.00;1.00;;;;;;5023812;28;20478;-80
2021/09/11 12:26:45;;;;;;;7.60;7.00;;;28.30;1.00;;;;;;5021819;28;20548;-79
2021/09/11 12:29:13;;;;;;;8.97;8.17;;;28.50;1.00;;;;;;5028373;28;20487;-79
2021/09/11 12:31:40;;;;;;;7.53;6.90;;;29.30;1.00;;;;;;5019383;28;20454;-79
2021/09/11 12:34:16;;;;;;;7.50;6.80;;;30.00;1.00;;;;;;5021045;28;20492;-78
2021/09/11 12:36:46;;;;;;;7.47;6.77;;;31.50;1.00;;;;;;5016592;28;20458;-77
2021/09/11 12:39:28;;;;;;;6.80;6.20;;;32.50;1.00;;;;;;5025712;28;20484;-79
2021/09/11 12:41:59;;;;;;;7.50;6.90;;;32.40;1.00;;;;;;5019532;28;20468;-78
2021/09/11 12:44:30;;;;;;;9.30;8.40;;;32.50;1.00;;;;;;5018079;28;20544;-79
2021/09/11 12:46:58;;;;;;;8.00;7.40;;;32.20;1.00;;;;;;5021108;28;20491;-79
2021/09/11 12:49:26;;;;;;;7.80;7.10;;;31.30;1.00;;;;;;5019410;28;20534;-80